sensor_id;sensor_type;location;lat;lon;timestamp;temperature;humidity
37342;DHT22;58643;49.052;8.518;2023-07-31T10:45:54;25.90;99.90
37342;DHT22;58643;49.052;8.518;2023-07-31T10:48:20;22.60;99.90
37342;DHT22;58643;49.052;8.518;2023-07-31T10:50:51;22.80;99.90
37342;DHT22;58643;49.052;8.518;2023-07-31T10:53:32;23.00;99.90
37342;DHT22;58643;49.052;8.518;2023-07-31T10:56:09;23.10;99.90
37342;DHT22;58643;49.052;8.518;2023-07-31T10:58:36;23.00;99.90
37342;DHT22;58643;49.052;8.518;2023-07-31T11:01:03;23.30;99.90
37342;DHT22;58643;49.052;8.518;2023-07-31T11:03:50;23.20;99.90
37342;DHT22;58643;49.052;8.518;2023-07-31T11:06:17;23.20;99.90
37342;DHT22;58643;49.052;8.518;2023-07-31T11:08:48;23.60;99.90
37342;DHT22;58643;49.052;8.518;2023-07-31T11:11:16;23.30;99.90
37342;DHT22;58643;49.052;8.518;2023-07-31T11:13:44;23.30;99.90
37342;DHT22;58643;49.052;8.518;2023-07-31T11:16:14;23.90;99.90
37342;DHT22;58643;49.052;8.518;2023-07-31T11:18:40;23.60;99.90
37342;DHT22;58643;49.052;8.518;2023-07-31T11:21:07;23.80;99.90
37342;DHT22;58643;49.052;8.518;2023-07-31T11:23:33;23.80;99.90
37342;DHT22;58643;49.052;8.518;2023-07-31T11:25:59;24.10;99.30
37342;DHT22;58643;49.052;8.518;2023-07-31T11:28:25;24.40;99.30
37342;DHT22;58643;49.052;8.518;2023-07-31T11:30:51;24.60;99.00
37342;DHT22;58643;49.052;8.518;2023-07-31T11:33:17;24.50;98.80
37342;DHT22;58643;49.052;8.518;2023-07-31T11:35:45;24.40;98.90
37342;DHT22;58643;49.052;8.518;2023-07-31T11:38:33;24.00;99.60
37342;DHT22;58643;49.052;8.518;2023-07-31T11:41:02;24.00;99.60
37342;DHT22;58643;49.052;8.518;2023-07-31T11:43:28;23.60;99.90
37342;DHT22;58643;49.052;8.518;2023-07-31T11:45:58;23.40;99.80
37342;DHT22;58643;49.052;8.518;2023-07-31T11:50:58;23.90;99.20
37342;DHT22;58643;49.052;8.518;2023-07-31T11:55:52;24.40;99.60
37342;DHT22;58643;49.052;8.518;2023-07-31T11:58:19;23.70;99.60
37342;DHT22;58643;49.052;8.518;2023-07-31T12:00:45;23.80;99.80
37342;DHT22;58643;49.052;8.518;2023-07-31T12:03:11;24.00;99.00
37342;DHT22;58643;49.052;8.518;2023-07-31T12:05:37;23.90;99.40
37342;DHT22;58643;49.052;8.518;2023-07-31T12:08:09;24.10;98.80
37342;DHT22;58643;49.052;8.518;2023-07-31T12:10:34;24.10;98.80
37342;DHT22;58643;49.052;8.518;2023-07-31T12:13:06;24.20;98.60
37342;DHT22;58643;49.052;8.518;2023-07-31T12:18:05;24.60;98.10
37342;DHT22;58643;49.052;8.518;2023-07-31T12:20:32;24.20;99.10
37342;DHT22;58643;49.052;8.518;2023-07-31T12:22:58;24.10;99.20
37342;DHT22;58643;49.052;8.518;2023-07-31T12:25:29;24.30;98.60
37342;DHT22;58643;49.052;8.518;2023-07-31T12:27:55;25.10;97.80
37342;DHT22;58643;49.052;8.518;2023-07-31T12:30:28;24.90;97.70
37342;DHT22;58643;49.052;8.518;2023-07-31T12:32:54;25.20;97.30
37342;DHT22;58643;49.052;8.518;2023-07-31T12:35:19;24.80;97.70
37342;DHT22;58643;49.052;8.518;2023-07-31T12:37:45;25.20;97.80
37342;DHT22;58643;49.052;8.518;2023-07-31T12:40:11;25.40;96.70
37342;DHT22;58643;49.052;8.518;2023-07-31T12:42:36;25.80;96.60
37342;DHT22;58643;49.052;8.518;2023-07-31T12:45:02;26.40;96.30
37342;DHT22;58643;49.052;8.518;2023-07-31T12:47:30;25.60;96.30
37342;DHT22;58643;49.052;8.518;2023-07-31T12:49:55;25.90;96.10
37342;DHT22;58643;49.052;8.518;2023-07-31T12:52:21;25.20;96.90
37342;DHT22;58643;49.052;8.518;2023-07-31T12:54:47;25.40;96.80
37342;DHT22;58643;49.052;8.518;2023-07-31T12:57:12;25.30;97.00
37342;DHT22;58643;49.052;8.518;2023-07-31T12:59:38;25.90;97.00
37342;DHT22;58643;49.052;8.518;2023-07-31T13:02:03;25.40;96.40
37342;DHT22;58643;49.052;8.518;2023-07-31T13:04:29;24.70;97.60
37342;DHT22;58643;49.052;8.518;2023-07-31T13:06:55;24.50;97.40
37342;DHT22;58643;49.052;8.518;2023-07-31T13:09:20;24.60;97.70
37342;DHT22;58643;49.052;8.518;2023-07-31T13:11:46;24.80;97.40
37342;DHT22;58643;49.052;8.518;2023-07-31T13:14:11;24.60;98.10
37342;DHT22;58643;49.052;8.518;2023-07-31T13:16:37;24.50;97.90
37342;DHT22;58643;49.052;8.518;2023-07-31T13:19:03;24.80;97.50
37342;DHT22;58643;49.052;8.518;2023-07-31T13:21:29;24.70;97.40
37342;DHT22;58643;49.052;8.518;2023-07-31T13:23:54;24.50;98.40
37342;DHT22;58643;49.052;8.518;2023-07-31T13:26:23;24.30;98.20
37342;DHT22;58643;49.052;8.518;2023-07-31T13:28:48;24.30;99.10
37342;DHT22;58643;49.052;8.518;2023-07-31T13:31:14;24.20;99.20
37342;DHT22;58643;49.052;8.518;2023-07-31T13:33:40;23.90;99.60
37342;DHT22;58643;49.052;8.518;2023-07-31T13:36:05;24.10;99.30
37342;DHT22;58643;49.052;8.518;2023-07-31T13:38:31;24.50;99.00
37342;DHT22;58643;49.052;8.518;2023-07-31T13:40:56;24.10;98.90
37342;DHT22;58643;49.052;8.518;2023-07-31T13:43:22;24.40;99.30
37342;DHT22;58643;49.052;8.518;2023-07-31T13:45:47;24.00;98.70
37342;DHT22;58643;49.052;8.518;2023-07-31T13:48:13;24.80;99.80
37342;DHT22;58643;49.052;8.518;2023-07-31T13:50:38;24.00;99.40
37342;DHT22;58643;49.052;8.518;2023-07-31T13:53:04;23.60;99.90
37342;DHT22;58643;49.052;8.518;2023-07-31T13:55:30;23.70;99.90
37342;DHT22;58643;49.052;8.518;2023-07-31T13:57:55;23.70;99.90
37342;DHT22;58643;49.052;8.518;2023-07-31T14:00:21;23.90;99.90
37342;DHT22;58643;49.052;8.518;2023-07-31T14:02:46;24.30;99.70
37342;DHT22;58643;49.052;8.518;2023-07-31T14:05:12;24.40;99.50
37342;DHT22;58643;49.052;8.518;2023-07-31T14:07:37;24.70;99.00
37342;DHT22;58643;49.052;8.518;2023-07-31T14:10:03;24.30;99.40
37342;DHT22;58643;49.052;8.518;2023-07-31T14:12:29;24.10;98.90
37342;DHT22;58643;49.052;8.518;2023-07-31T14:14:56;24.20;99.10
37342;DHT22;58643;49.052;8.518;2023-07-31T14:17:21;24.40;99.90
37342;DHT22;58643;49.052;8.518;2023-07-31T14:19:47;23.60;99.90
37342;DHT22;58643;49.052;8.518;2023-07-31T14:22:12;23.60;99.90
37342;DHT22;58643;49.052;8.518;2023-07-31T14:24:38;23.70;99.90
37342;DHT22;58643;49.052;8.518;2023-07-31T14:27:04;23.80;99.90
37342;DHT22;58643;49.052;8.518;2023-07-31T14:29:30;23.40;99.90
37342;DHT22;58643;49.052;8.518;2023-07-31T14:31:55;23.30;99.90
37342;DHT22;58643;49.052;8.518;2023-07-31T14:34:21;23.20;99.90
37342;DHT22;58643;49.052;8.518;2023-07-31T14:36:47;23.10;99.90
37342;DHT22;58643;49.052;8.518;2023-07-31T14:39:13;23.10;99.90
37342;DHT22;58643;49.052;8.518;2023-07-31T14:41:38;23.10;99.90
37342;DHT22;58643;49.052;8.518;2023-07-31T14:44:04;23.20;99.90
37342;DHT22;58643;49.052;8.518;2023-07-31T14:46:29;23.60;99.90
37342;DHT22;58643;49.052;8.518;2023-07-31T14:48:55;24.00;99.90
37342;DHT22;58643;49.052;8.518;2023-07-31T14:51:21;24.30;99.90
37342;DHT22;58643;49.052;8.518;2023-07-31T14:53:46;24.00;99.90
37342;DHT22;58643;49.052;8.518;2023-07-31T14:56:12;24.10;99.90
37342;DHT22;58643;49.052;8.518;2023-07-31T14:58:38;24.50;99.10
37342;DHT22;58643;49.052;8.518;2023-07-31T15:01:03;24.90;98.50
37342;DHT22;58643;49.052;8.518;2023-07-31T15:03:29;24.90;98.80
37342;DHT22;58643;49.052;8.518;2023-07-31T15:05:55;24.50;99.00
37342;DHT22;58643;49.052;8.518;2023-07-31T15:08:21;24.70;99.30
37342;DHT22;58643;49.052;8.518;2023-07-31T15:10:46;24.40;99.60
37342;DHT22;58643;49.052;8.518;2023-07-31T15:13:12;24.50;99.30
37342;DHT22;58643;49.052;8.518;2023-07-31T15:15:38;24.60;99.60
37342;DHT22;58643;49.052;8.518;2023-07-31T15:18:03;24.70;99.00
37342;DHT22;58643;49.052;8.518;2023-07-31T15:20:29;24.90;98.50
37342;DHT22;58643;49.052;8.518;2023-07-31T15:22:55;25.00;98.60
37342;DHT22;58643;49.052;8.518;2023-07-31T15:25:21;25.60;98.20
37342;DHT22;58643;49.052;8.518;2023-07-31T15:27:46;26.50;97.00
37342;DHT22;58643;49.052;8.518;2023-07-31T15:30:12;26.50;96.40
37342;DHT22;58643;49.052;8.518;2023-07-31T15:32:38;26.70;96.90
37342;DHT22;58643;49.052;8.518;2023-07-31T15:35:05;26.60;96.70
37342;DHT22;58643;49.052;8.518;2023-07-31T15:37:31;26.60;96.30
37342;DHT22;58643;49.052;8.518;2023-07-31T15:39:56;26.50;96.70
37342;DHT22;58643;49.052;8.518;2023-07-31T15:42:22;25.80;96.70
37342;DHT22;58643;49.052;8.518;2023-07-31T15:44:47;25.40;97.90
37342;DHT22;58643;49.052;8.518;2023-07-31T15:47:13;25.00;98.20
37342;DHT22;58643;49.052;8.518;2023-07-31T15:49:39;24.70;98.60
37342;DHT22;58643;49.052;8.518;2023-07-31T15:52:05;24.30;99.50
37342;DHT22;58643;49.052;8.518;2023-07-31T15:54:31;23.90;99.90
37342;DHT22;58643;49.052;8.518;2023-07-31T15:56:57;24.00;99.90
37342;DHT22;58643;49.052;8.518;2023-07-31T15:59:23;23.80;99.90
37342;DHT22;58643;49.052;8.518;2023-07-31T16:01:49;23.70;99.90
37342;DHT22;58643;49.052;8.518;2023-07-31T16:04:14;23.80;99.90
37342;DHT22;58643;49.052;8.518;2023-07-31T16:06:40;23.60;99.90
37342;DHT22;58643;49.052;8.518;2023-07-31T16:09:05;23.60;99.90
37342;DHT22;58643;49.052;8.518;2023-07-31T16:11:31;23.60;99.90
37342;DHT22;58643;49.052;8.518;2023-07-31T16:13:56;23.40;99.90
37342;DHT22;58643;49.052;8.518;2023-07-31T16:16:22;23.40;99.90
37342;DHT22;58643;49.052;8.518;2023-07-31T16:18:48;23.70;99.90
37342;DHT22;58643;49.052;8.518;2023-07-31T16:21:13;23.20;99.90
37342;DHT22;58643;49.052;8.518;2023-07-31T16:23:39;23.20;99.90
37342;DHT22;58643;49.052;8.518;2023-07-31T16:26:04;23.00;99.90
37342;DHT22;58643;49.052;8.518;2023-07-31T16:28:30;22.90;99.90
37342;DHT22;58643;49.052;8.518;2023-07-31T16:30:55;22.90;99.90
37342;DHT22;58643;49.052;8.518;2023-07-31T16:33:21;22.90;99.90
37342;DHT22;58643;49.052;8.518;2023-07-31T16:35:47;23.20;99.90
37342;DHT22;58643;49.052;8.518;2023-07-31T16:38:12;22.90;99.90
37342;DHT22;58643;49.052;8.518;2023-07-31T16:40:38;22.80;99.90
37342;DHT22;58643;49.052;8.518;2023-07-31T16:43:03;22.80;99.90
